createdAt,value
2016-04-29T00:00:35.911Z,16.55
2016-04-29T00:01:35.898Z,16.64
2016-04-29T00:02:35.916Z,16.74
2016-04-29T00:03:35.903Z,16.64
2016-04-29T00:04:35.922Z,16.54
2016-04-29T00:05:35.924Z,16.44
2016-04-29T00:06:35.927Z,16.64
2016-04-29T00:07:35.929Z,16.64
2016-04-29T00:08:35.948Z,16.64
2016-04-29T00:09:35.935Z,16.64
2016-04-29T00:10:35.954Z,16.64
2016-04-29T00:11:35.957Z,16.74
2016-04-29T00:12:35.958Z,16.84
2016-04-29T00:13:35.991Z,16.74
2016-04-29T00:14:36.284Z,16.84
2016-04-29T00:15:35.920Z,16.64
2016-04-29T00:16:36.119Z,16.64
2016-04-29T00:17:36.177Z,16.54
2016-04-29T00:18:36.211Z,16.64
2016-04-29T00:19:36.228Z,16.55
2016-04-29T00:20:36.244Z,16.64
2016-04-29T00:21:36.262Z,16.44
2016-04-29T00:22:36.278Z,16.64
2016-04-29T00:23:36.292Z,16.64
2016-04-29T00:24:36.315Z,16.54
2016-04-29T00:25:36.322Z,16.64
2016-04-29T00:26:36.330Z,16.74
2016-04-29T00:27:36.337Z,16.54
2016-04-29T00:28:36.360Z,16.64
2016-04-29T00:29:36.240Z,16.64
2016-04-29T00:30:35.619Z,16.44
2016-04-29T00:31:36.374Z,16.64
2016-04-29T00:32:36.378Z,16.54
2016-04-29T00:33:36.383Z,16.74
2016-04-29T00:34:36.386Z,16.54
2016-04-29T00:35:36.421Z,16.64
2016-04-29T00:36:36.424Z,16.64
2016-04-29T00:37:36.427Z,16.44
2016-04-29T00:38:36.431Z,16.74
2016-04-29T00:39:36.435Z,16.54
2016-04-29T00:40:36.453Z,16.74
2016-04-29T00:41:36.440Z,16.64
2016-04-29T00:42:36.443Z,16.74
2016-04-29T00:43:36.462Z,16.74
2016-04-29T18:19:16.219Z,16.86
2016-04-29T18:20:16.378Z,16.69
2016-04-29T18:21:16.366Z,16.69
2016-04-29T18:22:16.369Z,16.59
2016-04-29T18:23:16.372Z,15.72
2016-04-29T18:24:16.390Z,15.91
2016-04-29T18:25:16.393Z,15.91
2016-04-29T22:35:31.168Z,19.73
2016-04-29T22:36:30.998Z,20.01
2016-04-29T22:37:31.158Z,19.53
2016-04-29T22:38:31.161Z,19.73
2016-04-29T22:39:31.179Z,19.63
2016-04-29T22:40:31.167Z,20.03
2016-04-29T22:41:31.013Z,19.35
2016-04-29T22:42:31.187Z,19.63
2016-04-29T22:43:31.205Z,19.63
2016-04-29T22:44:31.192Z,19.54
2016-04-29T22:45:31.194Z,19.73
2016-04-29T22:46:31.213Z,19.73
2016-04-29T22:47:31.217Z,19.63
2016-04-29T22:48:31.078Z,19.53
2016-04-29T22:49:31.065Z,19.64
2016-04-29T22:50:31.239Z,19.45
2016-04-29T22:51:31.242Z,19.73
2016-04-29T22:52:31.088Z,19.63
2016-04-29T22:53:31.247Z,19.83
2016-04-29T22:54:31.251Z,19.83
2016-04-29T22:55:31.253Z,19.53
2016-04-29T22:56:31.271Z,19.53
2016-04-29T22:57:31.275Z,20.01
2016-04-29T22:58:31.293Z,19.45
2016-04-29T22:59:31.296Z,20.03
2016-04-29T23:00:31.299Z,20.01
2016-04-29T23:01:31.301Z,19.64
2016-04-29T23:02:31.303Z,19.63
2016-04-29T23:03:31.306Z,19.45
2016-04-29T23:04:31.309Z,19.54
2016-04-29T23:05:31.327Z,19.54
2016-04-29T23:06:31.174Z,19.73
2016-04-29T23:07:31.332Z,19.54
2016-04-29T23:08:31.350Z,19.45
2016-04-29T23:09:31.354Z,19.73
2016-04-29T23:10:31.357Z,19.73
2016-04-29T23:11:31.359Z,19.73
2016-04-29T23:12:31.362Z,19.73
2016-04-29T23:13:31.365Z,19.73
2016-04-29T23:14:31.226Z,19.82
2016-04-29T23:15:31.386Z,19.73
2016-04-29T23:16:31.232Z,19.93
2016-04-29T23:17:31.391Z,19.73
2016-04-29T23:18:31.769Z,19.73
2016-04-29T23:19:31.411Z,19.82
2016-04-29T23:20:31.414Z,19.53
2016-04-29T23:21:31.417Z,19.53
2016-04-29T23:22:31.263Z,19.64
2016-04-29T23:23:31.501Z,19.73
2016-04-29T23:24:31.441Z,19.64
2016-04-29T23:25:31.443Z,19.54
2016-04-29T23:26:31.461Z,19.93
2016-04-29T23:27:31.308Z,19.64
2016-04-29T23:28:31.467Z,19.73
2016-04-29T23:29:31.470Z,19.73
2016-04-29T23:30:31.472Z,19.83
2016-04-29T23:31:31.475Z,19.64
2016-04-29T23:32:31.478Z,19.54
2016-04-29T23:33:32.027Z,19.73
2016-04-29T23:34:31.499Z,19.64
2016-04-29T23:35:31.502Z,19.64
2016-04-29T23:36:31.520Z,19.82
2016-04-29T23:37:31.538Z,19.73
2016-04-29T23:38:31.525Z,19.73
2016-04-29T23:39:31.528Z,20.21
2016-04-29T23:40:31.531Z,20.11
2016-04-29T23:41:31.533Z,19.73
2016-04-29T23:42:31.551Z,19.73
2016-04-29T23:43:31.554Z,19.73
2016-04-29T23:44:31.557Z,19.92
2016-04-29T23:45:31.559Z,20.01
2016-04-29T23:46:31.562Z,19.82
2016-04-29T23:47:31.581Z,19.34
2016-04-29T23:48:31.771Z,19.92
2016-04-29T23:49:31.587Z,19.63
2016-04-29T23:50:31.589Z,20.01
2016-04-29T23:51:31.608Z,19.92
2016-04-29T23:52:31.453Z,20.01
2016-04-29T23:53:31.613Z,20.01
2016-04-29T23:54:31.616Z,19.82
2016-04-29T23:55:31.633Z,19.73
2016-04-29T23:56:31.621Z,20.11
2016-04-29T23:57:31.638Z,19.73
2016-04-29T23:58:31.641Z,20.01
2016-04-29T23:59:31.644Z,20.01
